Time;durP1;ratioP1;P1;durP2;ratioP2;P2;SDS_P1;SDS_P2;PMS_P1;PMS_P2;Temp;Humidity;BMP_temperature;BMP_pressure;BME280_temperature;BME280_humidity;BME280_pressure;Samples;Min_cycle;Max_cycle;Signal;HPM_P1;HPM_P2
2023/08/18 00:02:41;;;;;;;;;;;;;;;;;;5864327;23;19972;-91
2023/08/18 00:05:07;;;;;;;;;;;;;;;;;;4826446;29;19932;-91
2023/08/18 00:07:43;;;;;;;;;;;;;;;;;;;;;
2023/08/18 00:10:13;;;;;;;;;;;;;;;;;;4824755;29;19931;-87
2023/08/18 00:12:39;;;;;;;;;;;;;;;;;;4808715;29;19935;-87
2023/08/18 00:15:05;;;;;;;;;;;;;;;;;;4806890;29;19932;-87
2023/08/18 00:17:31;;;;;;;;;;;;;;;;;;4808132;29;20339;-87
2023/08/18 00:19:59;;;;;;;;;;;;;;;;;;4826058;29;19947;-87
2023/08/18 00:22:25;;;;;;;;;;;;;;;;;;4809566;29;19996;-87
2023/08/18 00:24:51;;;;;;;;;;;;;;;;;;4814589;29;19924;-87
2023/08/18 00:27:17;;;;;;;;;;;;;;;;;;4821753;29;19928;-87
2023/08/18 00:29:43;;;;;;;;;;;;;;;;;;4807657;29;19936;-87
2023/08/18 00:32:09;;;;;;;;;;;;;;;;;;4816258;29;19935;-87
2023/08/18 00:34:35;;;;;;;;;;;;;;;;;;4805683;29;19971;-86
2023/08/18 00:37:01;;;;;;;;;;;;;;;;;;4827570;29;19924;-87
2023/08/18 00:39:27;;;;;;;;;;;;;;;;;;4808603;29;19971;-87
2023/08/18 00:41:53;;;;;;;;;;;;;;;;;;4793129;29;19982;-87
2023/08/18 00:44:19;;;;;;;;;;;;;;;;;;4792758;29;19933;-87
2023/08/18 00:46:45;;;;;;;;;;;;;;;;;;4795255;29;19939;-87
2023/08/18 00:49:11;;;;;;;;;;;;;;;;;;4793068;29;19929;-87
2023/08/18 00:51:37;;;;;;;;;;;;;;;;;;4790757;29;19936;-87
2023/08/18 00:54:04;;;;;;;;;;;;;;;;;;4807685;29;20016;-87
2023/08/18 00:56:29;;;;;;;;;;;;;;;;;;4804354;29;20349;-86
2023/08/18 00:58:55;;;;;;;;;;;;;;;;;;4810016;29;19989;-87
2023/08/18 01:01:21;;;;;;;;;;;;;;;;;;4805991;29;19988;-85
2023/08/18 01:03:47;;;;;;;;;;;;;;;;;;4808250;29;20501;-86
2023/08/18 01:06:19;;;;;;;;;;;;;;;;;;4805846;29;19998;-85
2023/08/18 01:08:45;;;;;;;;;;;;;;;;;;4792847;29;19939;-85
2023/08/18 01:11:17;;;;;;;;;;;;;;;;;;4791021;29;19928;-86
2023/08/18 01:14:05;;;;;;;;;;;;;;;;;;;;;
2023/08/18 01:16:55;;;;;;;;;;;;;;;;;;4812838;29;19928;-86
2023/08/18 01:19:23;;;;;;;;;;;;;;;;;;4791778;29;19944;-86
2023/08/18 01:21:55;;;;;;;;;;;;;;;;;;4792553;29;20380;-86
2023/08/18 01:27:38;;;;;;;;;;;;;;;;;;4814164;29;22886;-85
2023/08/18 01:30:12;;;;;;;;;;;;;;;;;;4798383;29;19936;-86
2023/08/18 01:32:49;;;;;;;;;;;;;;;;;;4813577;29;20347;-86
2023/08/18 01:35:30;;;;;;;;;;;;;;;;;;4800790;29;19935;-86
2023/08/18 01:37:56;;;;;;;;;;;;;;;;;;4799026;29;20323;-85
2023/08/18 01:40:41;;;;;;;;;;;;;;;;;;4813018;29;19949;-86
2023/08/18 01:43:13;;;;;;;;;;;;;;;;;;4795570;29;19936;-85
2023/08/18 01:45:58;;;;;;;;;;;;;;;;;;;;;
2023/08/18 01:48:34;;;;;;;;;;;;;;;;;;;;;
2023/08/18 01:51:04;;;;;;;;;;;;;;;;;;4807026;29;20042;-85
2023/08/18 01:59:49;;;;;;;;;;;;;;;;;;5692663;24;19942;-86
2023/08/18 02:02:40;;;;;;;;;;;;;;;;;;4833736;29;19936;-86
2023/08/18 02:05:09;;;;;;;;;;;;;;;;;;4808414;29;20226;-86
2023/08/18 02:07:35;;;;;;;;;;;;;;;;;;4821363;29;20734;-86
2023/08/18 02:10:06;;;;;;;;;;;;;;;;;;4814448;29;20005;-86
2023/08/18 02:12:48;;;;;;;;;;;;;;;;;;4815318;29;19951;-86
2023/08/18 02:15:27;;;;;;;;;;;;;;;;;;;;;
2023/08/18 02:18:23;;;;;;;;;;;;;;;;;;;;;
2023/08/18 02:20:49;;;;;;;;;;;;;;;;;;4828807;29;19924;-86
2023/08/18 02:23:21;;;;;;;;;;;;;;;;;;4843407;29;20039;-86
2023/08/18 02:25:53;;;;;;;;;;;;;;;;;;4820597;29;19967;-86
2023/08/18 02:28:21;;;;;;;;;;;;;;;;;;4812796;29;19936;-85
2023/08/18 02:30:47;;;;;;;;;;;;;;;;;;4797718;29;20027;-86
2023/08/18 02:33:19;;;;;;;;;;;;;;;;;;4824006;29;19997;-86
2023/08/18 02:35:58;;;;;;;;;;;;;;;;;;4828224;29;19924;-85
2023/08/18 02:38:24;;;;;;;;;;;;;;;;;;4788909;29;20380;-86
2023/08/18 02:40:54;;;;;;;;;;;;;;;;;;4807242;29;20019;-86
2023/08/18 02:43:40;;;;;;;;;;;;;;;;;;4807476;29;19940;-85
2023/08/18 02:46:30;;;;;;;;;;;;;;;;;;4797179;29;19929;-86
2023/08/18 02:48:58;;;;;;;;;;;;;;;;;;4793462;29;19933;-85
2023/08/18 02:51:27;;;;;;;;;;;;;;;;;;4807854;29;19977;-86
2023/08/18 03:03:51;;;;;;;;;;;;;;;;;;;;;
2023/08/18 03:12:54;;;;;;;;;;;;;;;;;;4843494;29;22001;-87
2023/08/18 03:15:41;;;;;;;;;;;;;;;;;;4815366;29;20411;-87
2023/08/18 03:24:32;;;;;;;;;;;;;;;;;;;;;
2023/08/18 03:42:46;;;;;;;;;;;;;;;;;;;;;
2023/08/18 04:08:04;;;;;;;;;;;;;;;;;;4874169;29;20009;-86
2023/08/18 04:26:14;;;;;;;;;;;;;;;;;;;;;
2023/08/18 04:37:00;;;;;;;;;;;;;;;;;;4843635;29;20080;-86
2023/08/18 05:14:24;;;;;;;;;;;;;;;;;;4589734;30;19937;-86
2023/08/18 05:26:04;;;;;;;;;;;;;;;;;;4991118;23;19932;-86
2023/08/18 05:50:34;;;;;;;;;;;;;;;;;;4847556;29;20307;-86
2023/08/18 05:56:54;;;;;;;;;;;;;;;;;;;;;
2023/08/18 05:59:54;;;;;;;;;;;;;;;;;;;;;
2023/08/18 06:02:41;;;;;;;;;;;;;;;;;;4765482;29;19949;-86
2023/08/18 06:05:53;;;;;;;;;;;;;;;;;;;;;
2023/08/18 06:08:37;;;;;;;;;;;;;;;;;;4695174;30;19996;-86
2023/08/18 06:21:21;;;;;;;;;;;;;;;;;;;;;
2023/08/18 06:23:36;;;;;;;;;;;;;;;;;;4643305;30;20651;-86
2023/08/18 06:39:32;;;;;;;;;;;;;;;;;;4859645;29;20551;-86
2023/08/18 06:48:10;;;;;;;;;;;;;;;;;;4802590;29;19925;-86
2023/08/18 06:51:06;;;;;;;;;;;;;;;;;;4791356;29;19935;-87
2023/08/18 06:57:02;;;;;;;;;;;;;;;;;;4781755;29;19929;-86
2023/08/18 06:59:52;;;;;;;;;;;;;;;;;;4783650;29;19929;-86
2023/08/18 07:05:38;;;;;;;;;;;;;;;;;;4782087;29;20351;-86
2023/08/18 07:08:19;;;;;;;;;;;;;;;;;;4814165;29;20445;-85
2023/08/18 07:11:15;;;;;;;;;;;;;;;;;;4833139;29;19955;-85
2023/08/18 07:13:59;;;;;;;;;;;;;;;;;;4828699;29;19971;-85
2023/08/18 07:16:28;;;;;;;;;;;;;;;;;;4808394;29;20030;-85
2023/08/18 07:18:57;;;;;;;;;;;;;;;;;;4841841;29;19923;-85
2023/08/18 07:21:34;;;;;;;;;;;;;;;;;;4860392;29;19930;-86
2023/08/18 07:24:09;;;;;;;;;;;;;;;;;;4866948;29;19932;-86
2023/08/18 07:27:09;;;;;;;;;;;;;;;;;;;;;
2023/08/18 07:32:37;;;;;;;;;;;;;;;;;;4799230;29;20650;-85
2023/08/18 07:35:39;;;;;;;;;;;;;;;;;;4839439;29;19977;-85
2023/08/18 07:38:18;;;;;;;;;;;;;;;;;;4825870;29;20035;-86
2023/08/18 07:41:09;;;;;;;;;;;;;;;;;;4807693;29;19984;-85
2023/08/18 07:52:55;;;;;;;;;;;;;;;;;;4806181;29;19939;-85
2023/08/18 08:01:55;;;;;;;;;;;;;;;;;;4803278;29;19953;-85
2023/08/18 08:04:33;;;;;;;;;;;;;;;;;;4790907;29;19956;-85
2023/08/18 08:19:01;;;;;;;;;;;;;;;;;;4835708;29;19934;-85
2023/08/18 08:21:58;;;;;;;;;;;;;;;;;;4807112;29;20099;-85
2023/08/18 08:24:36;;;;;;;;;;;;;;;;;;4837558;29;20015;-85
2023/08/18 08:27:35;;;;;;;;;;;;;;;;;;4832079;29;20479;-85
2023/08/18 08:33:36;;;;;;;;;;;;;;;;;;4819389;29;20035;-85
2023/08/18 08:36:28;;;;;;;;;;;;;;;;;;4809114;29;20569;-85
2023/08/18 08:42:10;;;;;;;;;;;;;;;;;;4823236;29;19998;-85
2023/08/18 08:45:02;;;;;;;;;;;;;;;;;;4824045;29;20490;-85
2023/08/18 08:48:07;;;;;;;;;;;;;;;;;;;;;
2023/08/18 08:50:49;;;;;;;;;;;;;;;;;;;;;
2023/08/18 08:53:28;;;;;;;;;;;;;;;;;;4851419;29;20090;-86
2023/08/18 08:56:24;;;;;;;;;;;;;;;;;;4834828;29;20026;-86
2023/08/18 08:59:04;;;;;;;;;;;;;;;;;;4841540;29;19934;-85
2023/08/18 09:04:37;;;;;;;;;;;;;;;;;;;;;
2023/08/18 09:07:17;;;;;;;;;;;;;;;;;;;;;
2023/08/18 09:15:37;;;;;;;;;;;;;;;;;;4796682;29;21822;-85
2023/08/18 09:21:19;;;;;;;;;;;;;;;;;;4783689;29;20029;-85
2023/08/18 09:26:56;;;;;;;;;;;;;;;;;;4834384;29;20380;-85
2023/08/18 09:29:32;;;;;;;;;;;;;;;;;;;;;
2023/08/18 09:35:19;;;;;;;;;;;;;;;;;;;;;
2023/08/18 09:41:04;;;;;;;;;;;;;;;;;;4749332;29;20036;-86
2023/08/18 09:44:01;;;;;;;;;;;;;;;;;;4766556;29;19925;-86
2023/08/18 09:46:38;;;;;;;;;;;;;;;;;;4780246;29;19929;-86
2023/08/18 09:52:46;;;;;;;;;;;;;;;;;;;;;
2023/08/18 09:58:43;;;;;;;;;;;;;;;;;;4824418;29;20050;-87
2023/08/18 10:19:13;;;;;;;;;;;;;;;;;;4677537;30;20696;-87
2023/08/18 10:28:23;;;;;;;;;;;;;;;;;;;;;
2023/08/18 10:50:20;;;;;;;;;;;;;;;;;;;;;
2023/08/18 11:38:39;;;;;;;;;;;;;;;;;;4875429;29;19935;-93
2023/08/18 11:41:06;;;;;;;;;;;;;;;;;;4868036;29;19935;-92
2023/08/18 11:43:33;;;;;;;;;;;;;;;;;;4851807;29;19928;-92
2023/08/18 11:46:00;;;;;;;;;;;;;;;;;;4866970;29;19931;-91
2023/08/18 11:48:29;;;;;;;;;;;;;;;;;;4862622;29;20045;-92
2023/08/18 11:51:00;;;;;;;;;;;;;;;;;;4865975;29;20575;-92
2023/08/18 11:53:26;;;;;;;;;;;;;;;;;;4843730;29;19927;-91
2023/08/18 11:55:52;;;;;;;;;;;;;;;;;;4866446;29;20011;-90
2023/08/18 11:58:19;;;;;;;;;;;;;;;;;;4841848;29;19957;-89
2023/08/18 12:00:46;;;;;;;;;;;;;;;;;;4867209;29;19987;-91
2023/08/18 12:03:12;;;;;;;;;;;;;;;;;;4855973;29;19996;-89
2023/08/18 12:05:39;;;;;;;;;;;;;;;;;;4858947;29;20383;-91
2023/08/18 12:08:09;;;;;;;;;;;;;;;;;;4840953;29;19942;-91
2023/08/18 12:10:36;;;;;;;;;;;;;;;;;;4860790;29;20002;-92
2023/08/18 12:13:04;;;;;;;;;;;;;;;;;;4863962;29;20006;-91
2023/08/18 12:15:32;;;;;;;;;;;;;;;;;;4845814;29;19959;-93
2023/08/18 12:17:59;;;;;;;;;;;;;;;;;;4847649;29;20051;-90
2023/08/18 12:20:26;;;;;;;;;;;;;;;;;;4842833;29;19935;-90
2023/08/18 12:22:52;;;;;;;;;;;;;;;;;;4848909;29;19938;-90
2023/08/18 12:25:20;;;;;;;;;;;;;;;;;;4847504;29;19923;-90
2023/08/18 12:27:46;;;;;;;;;;;;;;;;;;4861846;29;20306;-90
2023/08/18 12:30:13;;;;;;;;;;;;;;;;;;4850826;29;19932;-90
2023/08/18 12:32:40;;;;;;;;;;;;;;;;;;4861136;29;19995;-90
2023/08/18 12:35:08;;;;;;;;;;;;;;;;;;4867201;29;19929;-91
2023/08/18 12:37:34;;;;;;;;;;;;;;;;;;4858572;29;19938;-92
2023/08/18 12:40:00;;;;;;;;;;;;;;;;;;4863533;29;19928;-91
2023/08/18 12:42:27;;;;;;;;;;;;;;;;;;4853549;29;20331;-91
2023/08/18 12:44:55;;;;;;;;;;;;;;;;;;4879107;29;19946;-90
2023/08/18 12:47:39;;;;;;;;;;;;;;;;;;4863561;29;19934;-90
2023/08/18 12:50:07;;;;;;;;;;;;;;;;;;4847928;29;20014;-91
2023/08/18 12:52:34;;;;;;;;;;;;;;;;;;4864668;29;19923;-91
2023/08/18 12:55:00;;;;;;;;;;;;;;;;;;4864437;29;20402;-91
2023/08/18 12:57:26;;;;;;;;;;;;;;;;;;4859136;29;20014;-91
2023/08/18 12:59:52;;;;;;;;;;;;;;;;;;4859287;29;20649;-92
2023/08/18 13:02:19;;;;;;;;;;;;;;;;;;4863759;29;19931;-91
2023/08/18 13:04:45;;;;;;;;;;;;;;;;;;4851306;29;19932;-91
2023/08/18 13:07:11;;;;;;;;;;;;;;;;;;4881426;29;19931;-91
2023/08/18 13:09:37;;;;;;;;;;;;;;;;;;4855183;29;20532;-90
2023/08/18 13:12:06;;;;;;;;;;;;;;;;;;4876377;29;19934;-91
2023/08/18 13:14:34;;;;;;;;;;;;;;;;;;4846767;29;20071;-91
2023/08/18 13:17:02;;;;;;;;;;;;;;;;;;4865294;29;19935;-91
2023/08/18 13:19:28;;;;;;;;;;;;;;;;;;4861535;29;20050;-91
2023/08/18 13:21:55;;;;;;;;;;;;;;;;;;4864818;29;19967;-91
2023/08/18 13:24:25;;;;;;;;;;;;;;;;;;4842388;29;20263;-90
2023/08/18 13:26:51;;;;;;;;;;;;;;;;;;4864313;29;19949;-91
2023/08/18 13:29:18;;;;;;;;;;;;;;;;;;4845867;29;19928;-91
2023/08/18 13:31:45;;;;;;;;;;;;;;;;;;4851861;29;20049;-90
2023/08/18 13:34:11;;;;;;;;;;;;;;;;;;4863246;29;19931;-90
2023/08/18 13:36:40;;;;;;;;;;;;;;;;;;4844811;29;20031;-91
2023/08/18 13:39:08;;;;;;;;;;;;;;;;;;4859348;29;19928;-91
2023/08/18 13:41:34;;;;;;;;;;;;;;;;;;4857607;29;20000;-91
2023/08/18 13:44:02;;;;;;;;;;;;;;;;;;4849970;29;19924;-91
2023/08/18 13:46:30;;;;;;;;;;;;;;;;;;4837885;29;19932;-90
2023/08/18 13:48:56;;;;;;;;;;;;;;;;;;4858172;29;19934;-91
2023/08/18 13:51:22;;;;;;;;;;;;;;;;;;4851941;29;19932;-92
2023/08/18 13:53:48;;;;;;;;;;;;;;;;;;4845311;29;19979;-91
2023/08/18 13:56:15;;;;;;;;;;;;;;;;;;4843882;29;19928;-90
2023/08/18 13:58:45;;;;;;;;;;;;;;;;;;4859633;29;19992;-91
2023/08/18 14:01:11;;;;;;;;;;;;;;;;;;4848859;29;20311;-91
2023/08/18 14:03:37;;;;;;;;;;;;;;;;;;4838924;29;19939;-91
2023/08/18 14:06:03;;;;;;;;;;;;;;;;;;4842957;29;19927;-90
2023/08/18 14:08:29;;;;;;;;;;;;;;;;;;4837796;29;19928;-90
2023/08/18 14:10:56;;;;;;;;;;;;;;;;;;4857732;29;19928;-90
2023/08/18 14:13:23;;;;;;;;;;;;;;;;;;4857000;29;19967;-91
2023/08/18 14:15:50;;;;;;;;;;;;;;;;;;4856552;29;19935;-91
2023/08/18 14:18:17;;;;;;;;;;;;;;;;;;4841206;29;19932;-91
2023/08/18 14:20:44;;;;;;;;;;;;;;;;;;4846820;29;20371;-91
2023/08/18 14:23:11;;;;;;;;;;;;;;;;;;4852919;29;19935;-91
2023/08/18 14:25:39;;;;;;;;;;;;;;;;;;4833457;29;21699;-91
2023/08/18 14:28:05;;;;;;;;;;;;;;;;;;4846134;29;20438;-92
2023/08/18 14:30:31;;;;;;;;;;;;;;;;;;4858373;29;20390;-91
2023/08/18 14:32:57;;;;;;;;;;;;;;;;;;4860738;29;20383;-91
2023/08/18 14:35:35;;;;;;;;;;;;;;;;;;4836048;29;19924;-90
2023/08/18 14:38:02;;;;;;;;;;;;;;;;;;4847057;29;20011;-91
2023/08/18 14:40:39;;;;;;;;;;;;;;;;;;4845202;29;19943;-91
2023/08/18 14:43:19;;;;;;;;;;;;;;;;;;4853504;29;20291;-90
2023/08/18 14:45:45;;;;;;;;;;;;;;;;;;4845838;29;19935;-91
2023/08/18 14:48:11;;;;;;;;;;;;;;;;;;4839840;29;20398;-92
2023/08/18 14:50:38;;;;;;;;;;;;;;;;;;4848094;29;19980;-91
2023/08/18 14:53:05;;;;;;;;;;;;;;;;;;4857343;29;19935;-91
2023/08/18 14:55:33;;;;;;;;;;;;;;;;;;4835620;29;19963;-91
2023/08/18 14:58:00;;;;;;;;;;;;;;;;;;4850365;29;20399;-90
2023/08/18 15:00:28;;;;;;;;;;;;;;;;;;4847766;29;19932;-91
2023/08/18 15:02:54;;;;;;;;;;;;;;;;;;4837096;29;20509;-90
2023/08/18 15:05:22;;;;;;;;;;;;;;;;;;4836906;29;19924;-91
2023/08/18 15:07:51;;;;;;;;;;;;;;;;;;4858286;29;19927;-90
2023/08/18 15:10:21;;;;;;;;;;;;;;;;;;4860729;29;19928;-91
2023/08/18 15:12:49;;;;;;;;;;;;;;;;;;4847490;29;19924;-91
2023/08/18 15:15:18;;;;;;;;;;;;;;;;;;4866278;29;19940;-90
2023/08/18 15:17:45;;;;;;;;;;;;;;;;;;4847458;29;19978;-91
2023/08/18 15:20:11;;;;;;;;;;;;;;;;;;4857211;29;19936;-90
2023/08/18 15:22:37;;;;;;;;;;;;;;;;;;4856863;29;19931;-91
2023/08/18 15:25:04;;;;;;;;;;;;;;;;;;4863413;29;19928;-90
2023/08/18 15:27:30;;;;;;;;;;;;;;;;;;4843244;29;19935;-91
2023/08/18 15:29:56;;;;;;;;;;;;;;;;;;4861533;29;19932;-90
2023/08/18 15:32:22;;;;;;;;;;;;;;;;;;4856534;29;19928;-91
2023/08/18 15:34:49;;;;;;;;;;;;;;;;;;4852217;29;19939;-90
2023/08/18 15:37:17;;;;;;;;;;;;;;;;;;4839436;29;20026;-91
2023/08/18 15:39:44;;;;;;;;;;;;;;;;;;4849887;29;19938;-90
2023/08/18 15:42:11;;;;;;;;;;;;;;;;;;4843000;29;20287;-90
2023/08/18 15:44:38;;;;;;;;;;;;;;;;;;4837656;29;19938;-91
2023/08/18 15:47:06;;;;;;;;;;;;;;;;;;4858669;29;20318;-91
2023/08/18 15:49:32;;;;;;;;;;;;;;;;;;4847608;29;19936;-90
2023/08/18 15:51:58;;;;;;;;;;;;;;;;;;4859896;29;19930;-90
2023/08/18 15:54:24;;;;;;;;;;;;;;;;;;4838823;29;19924;-90
2023/08/18 15:56:52;;;;;;;;;;;;;;;;;;4833455;29;19931;-90
2023/08/18 15:59:36;;;;;;;;;;;;;;;;;;;;;
2023/08/18 16:02:26;;;;;;;;;;;;;;;;;;4860391;29;19943;-91
2023/08/18 16:11:03;;;;;;;;;;;;;;;;;;4763103;29;19933;-90
2023/08/18 16:13:29;;;;;;;;;;;;;;;;;;4737456;29;20453;-90
2023/08/18 16:16:00;;;;;;;;;;;;;;;;;;4788046;29;19932;-90
2023/08/18 16:18:26;;;;;;;;;;;;;;;;;;4821281;29;19924;-90
2023/08/18 16:20:52;;;;;;;;;;;;;;;;;;4809399;29;19939;-89
2023/08/18 16:23:20;;;;;;;;;;;;;;;;;;4821976;29;19940;-90
2023/08/18 16:25:46;;;;;;;;;;;;;;;;;;4853194;29;19932;-90
2023/08/18 16:28:18;;;;;;;;;;;;;;;;;;4855436;29;19964;-90
2023/08/18 16:30:44;;;;;;;;;;;;;;;;;;4839744;29;19927;-90
2023/08/18 16:33:11;;;;;;;;;;;;;;;;;;4822406;29;19952;-91
2023/08/18 16:35:37;;;;;;;;;;;;;;;;;;4829778;29;20286;-90
2023/08/18 16:38:07;;;;;;;;;;;;;;;;;;4847647;29;19936;-91
2023/08/18 16:40:37;;;;;;;;;;;;;;;;;;4849121;29;20027;-91
2023/08/18 16:43:20;;;;;;;;;;;;;;;;;;;;;
2023/08/18 16:45:49;;;;;;;;;;;;;;;;;;4863226;29;20307;-90
2023/08/18 16:48:24;;;;;;;;;;;;;;;;;;4825681;29;19983;-91
2023/08/18 16:50:57;;;;;;;;;;;;;;;;;;4805864;29;20444;-90
2023/08/18 16:53:49;;;;;;;;;;;;;;;;;;4830833;29;21774;-91
2023/08/18 16:56:20;;;;;;;;;;;;;;;;;;4831972;29;19930;-90
2023/08/18 16:58:57;;;;;;;;;;;;;;;;;;4809899;29;20030;-91
2023/08/18 17:01:45;;;;;;;;;;;;;;;;;;4806302;29;19928;-92
2023/08/18 17:04:34;;;;;;;;;;;;;;;;;;;;;
2023/08/18 17:07:15;;;;;;;;;;;;;;;;;;4823291;29;19943;-90
2023/08/18 17:10:12;;;;;;;;;;;;;;;;;;4795761;29;19932;-90
2023/08/18 17:12:56;;;;;;;;;;;;;;;;;;;;;
2023/08/18 17:15:25;;;;;;;;;;;;;;;;;;4823204;29;19929;-90
2023/08/18 17:21:09;;;;;;;;;;;;;;;;;;;;;
2023/08/18 17:23:50;;;;;;;;;;;;;;;;;;;;;
2023/08/18 17:35:17;;;;;;;;;;;;;;;;;;5751821;23;19982;-90
2023/08/18 17:41:05;;;;;;;;;;;;;;;;;;4882736;29;19938;-91
2023/08/18 18:13:06;;;;;;;;;;;;;;;;;;;;;
2023/08/18 18:57:13;;;;;;;;;;;;;;;;;;4673291;30;19980;-91
2023/08/18 19:09:28;;;;;;;;;;;;;;;;;;4813418;29;20019;-92
2023/08/18 19:12:10;;;;;;;;;;;;;;;;;;4833503;29;19923;-92
2023/08/18 19:14:47;;;;;;;;;;;;;;;;;;4848113;29;19931;-91
2023/08/18 19:17:38;;;;;;;;;;;;;;;;;;;;;
2023/08/18 19:20:23;;;;;;;;;;;;;;;;;;;;;
2023/08/18 19:23:01;;;;;;;;;;;;;;;;;;4872004;29;19973;-91
2023/08/18 19:25:37;;;;;;;;;;;;;;;;;;;;;
2023/08/18 19:37:32;;;;;;;;;;;;;;;;;;4775363;29;19926;-92
2023/08/18 19:40:13;;;;;;;;;;;;;;;;;;4838371;29;20059;-92
2023/08/18 19:42:41;;;;;;;;;;;;;;;;;;4855056;29;19935;-91
2023/08/18 19:45:08;;;;;;;;;;;;;;;;;;4866491;29;19924;-92
2023/08/18 19:47:36;;;;;;;;;;;;;;;;;;4863518;29;20606;-91
2023/08/18 19:50:02;;;;;;;;;;;;;;;;;;4867922;29;19926;-91
2023/08/18 19:52:28;;;;;;;;;;;;;;;;;;4865299;29;19924;-91
2023/08/18 19:54:57;;;;;;;;;;;;;;;;;;4860044;29;20307;-92
2023/08/18 19:57:44;;;;;;;;;;;;;;;;;;4849679;29;19931;-92
2023/08/18 20:00:20;;;;;;;;;;;;;;;;;;4853847;29;19932;-91
2023/08/18 20:02:49;;;;;;;;;;;;;;;;;;4851965;29;19979;-91
2023/08/18 20:05:20;;;;;;;;;;;;;;;;;;4872293;29;19928;-90
2023/08/18 20:08:26;;;;;;;;;;;;;;;;;;4870079;29;19927;-91
2023/08/18 20:10:52;;;;;;;;;;;;;;;;;;4856857;29;19935;-91
2023/08/18 20:13:18;;;;;;;;;;;;;;;;;;4854999;29;19923;-91
2023/08/18 20:15:47;;;;;;;;;;;;;;;;;;4852951;29;20474;-91
2023/08/18 20:18:16;;;;;;;;;;;;;;;;;;4868113;29;19979;-91
2023/08/18 20:20:53;;;;;;;;;;;;;;;;;;4855051;29;19942;-90
2023/08/18 20:23:38;;;;;;;;;;;;;;;;;;4877604;29;19931;-90
2023/08/18 20:26:07;;;;;;;;;;;;;;;;;;4856919;29;19938;-91
2023/08/18 20:31:43;;;;;;;;;;;;;;;;;;4858138;29;20439;-90
2023/08/18 20:34:26;;;;;;;;;;;;;;;;;;4861971;29;19924;-91
2023/08/18 20:37:05;;;;;;;;;;;;;;;;;;4870722;29;20409;-91
2023/08/18 20:43:18;;;;;;;;;;;;;;;;;;4757034;30;19985;-92
2023/08/18 20:46:15;;;;;;;;;;;;;;;;;;4749060;29;19926;-91
2023/08/18 20:48:54;;;;;;;;;;;;;;;;;;;;;
2023/08/18 20:58:17;;;;;;;;;;;;;;;;;;;;;
2023/08/18 21:01:26;;;;;;;;;;;;;;;;;;4716366;30;19942;-91
2023/08/18 21:07:04;;;;;;;;;;;;;;;;;;4677466;30;19932;-90
2023/08/18 21:09:44;;;;;;;;;;;;;;;;;;4675676;30;19937;-92
2023/08/18 21:12:10;;;;;;;;;;;;;;;;;;4726040;29;19925;-91
2023/08/18 21:14:36;;;;;;;;;;;;;;;;;;4790609;29;20065;-92
2023/08/18 21:17:03;;;;;;;;;;;;;;;;;;4778575;29;20015;-92
2023/08/18 21:19:29;;;;;;;;;;;;;;;;;;4788051;29;19932;-91
2023/08/18 21:21:55;;;;;;;;;;;;;;;;;;4778383;29;19977;-91
2023/08/18 21:24:21;;;;;;;;;;;;;;;;;;4789316;29;20000;-91
2023/08/18 21:26:47;;;;;;;;;;;;;;;;;;4793557;29;19981;-91
2023/08/18 21:29:13;;;;;;;;;;;;;;;;;;4792203;29;20385;-92
2023/08/18 21:31:39;;;;;;;;;;;;;;;;;;4789247;29;19928;-91
2023/08/18 21:34:05;;;;;;;;;;;;;;;;;;4809412;29;19933;-90
2023/08/18 21:36:31;;;;;;;;;;;;;;;;;;4792830;29;20447;-91
2023/08/18 21:39:03;;;;;;;;;;;;;;;;;;4792662;29;19976;-91
2023/08/18 21:41:29;;;;;;;;;;;;;;;;;;4789017;29;20043;-92
2023/08/18 21:43:55;;;;;;;;;;;;;;;;;;4804810;29;19929;-91
2023/08/18 21:46:22;;;;;;;;;;;;;;;;;;4807149;29;19928;-92
2023/08/18 21:48:48;;;;;;;;;;;;;;;;;;4811413;29;19967;-91
2023/08/18 21:51:39;;;;;;;;;;;;;;;;;;;;;
2023/08/18 21:54:29;;;;;;;;;;;;;;;;;;4827402;29;19975;-92
2023/08/18 21:57:10;;;;;;;;;;;;;;;;;;;;;
2023/08/18 22:00:06;;;;;;;;;;;;;;;;;;4812988;29;20551;-94
2023/08/18 22:02:57;;;;;;;;;;;;;;;;;;;;;
2023/08/18 22:15:52;;;;;;;;;;;;;;;;;;;;;
2023/08/18 22:31:28;;;;;;;;;;;;;;;;;;;;;
2023/08/18 22:41:45;;;;;;;;;;;;;;;;;;4609991;30;20098;-93
2023/08/18 23:18:53;;;;;;;;;;;;;;;;;;6215381;23;19923;-93
2023/08/18 23:21:19;;;;;;;;;;;;;;;;;;6184459;23;19920;-93
2023/08/18 23:23:45;;;;;;;;;;;;;;;;;;6268243;22;19926;-91
2023/08/18 23:26:11;;;;;;;;;;;;;;;;;;6280698;22;19914;-92
2023/08/18 23:28:37;;;;;;;;;;;;;;;;;;6277668;22;20432;-92
2023/08/18 23:31:06;;;;;;;;;;;;;;;;;;6304061;22;20329;-93
2023/08/18 23:33:32;;;;;;;;;;;;;;;;;;6278783;22;19977;-93
2023/08/18 23:35:59;;;;;;;;;;;;;;;;;;6284539;22;19922;-92
2023/08/18 23:38:24;;;;;;;;;;;;;;;;;;6279646;22;19979;-93
2023/08/18 23:40:50;;;;;;;;;;;;;;;;;;6280879;22;20390;-93
2023/08/18 23:43:19;;;;;;;;;;;;;;;;;;6279072;22;20005;-92
2023/08/18 23:45:45;;;;;;;;;;;;;;;;;;6306867;22;19914;-93
2023/08/18 23:48:11;;;;;;;;;;;;;;;;;;6278918;22;20347;-93
2023/08/18 23:50:37;;;;;;;;;;;;;;;;;;6278105;22;19923;-93
2023/08/18 23:53:03;;;;;;;;;;;;;;;;;;6279339;22;19985;-93
2023/08/18 23:55:32;;;;;;;;;;;;;;;;;;6276576;22;19919;-93
2023/08/18 23:57:58;;;;;;;;;;;;;;;;;;6282199;22;19942;-92
